createdAt,value
2017-09-08T00:02:23.624Z,15.17
2017-09-08T00:04:49.858Z,15.16
2017-09-08T00:07:16.125Z,15.16
2017-09-08T00:09:42.348Z,15.16
2017-09-08T00:12:09.320Z,15.16
2017-09-08T00:14:35.577Z,15.18
2017-09-08T00:17:02.643Z,15.19
2017-09-08T00:19:28.869Z,15.21
2017-09-08T00:21:55.112Z,15.18
2017-09-08T00:24:22.090Z,15.19
2017-09-08T00:26:48.318Z,15.21
2017-09-08T00:29:14.706Z,15.18
2017-09-08T00:31:40.934Z,15.21
2017-09-08T00:34:07.949Z,15.25
2017-09-08T00:36:34.490Z,15.25
2017-09-08T00:39:00.748Z,15.27
2017-09-08T00:41:27.722Z,15.25
2017-09-08T00:43:54.008Z,15.28
2017-09-08T00:46:20.260Z,15.27
2017-09-08T00:48:47.242Z,15.27
2017-09-08T00:51:13.518Z,15.26
2017-09-08T00:53:40.529Z,15.25
2017-09-08T00:56:06.830Z,15.28
2017-09-08T00:58:33.073Z,15.28
2017-09-08T01:00:59.305Z,15.27
2017-09-08T01:03:25.574Z,15.26
2017-09-08T01:05:51.838Z,15.26
2017-09-08T01:08:18.813Z,15.27
2017-09-08T01:10:45.080Z,15.30
2017-09-08T01:13:11.334Z,15.25
2017-09-08T01:15:37.583Z,15.27
2017-09-08T01:18:03.857Z,15.28
2017-09-08T01:20:30.077Z,15.27
2017-09-08T01:23:02.546Z,15.26
2017-09-08T01:25:28.789Z,15.28
2017-09-08T01:27:55.002Z,15.26
2017-09-08T01:30:21.247Z,15.28
2017-09-08T01:32:47.505Z,15.29
2017-09-08T01:35:13.738Z,15.28
2017-09-08T01:37:40.005Z,15.27
2017-09-08T01:40:06.350Z,15.28
2017-09-08T01:42:32.599Z,15.25
2017-09-08T01:44:58.809Z,15.27
2017-09-08T01:47:25.043Z,15.31
2017-09-08T01:49:51.268Z,15.31
2017-09-08T01:52:17.517Z,15.32
2017-09-08T01:54:43.738Z,15.27
2017-09-08T01:57:09.964Z,15.31
2017-09-08T01:59:36.227Z,15.31
2017-09-08T02:02:02.483Z,15.32
2017-09-08T02:04:28.701Z,15.32
2017-09-08T02:06:54.966Z,15.30
2017-09-08T02:09:21.185Z,15.33
2017-09-08T02:11:47.393Z,15.32
2017-09-08T02:14:13.850Z,15.34
2017-09-08T02:16:40.074Z,15.35
2017-09-08T02:19:06.291Z,15.35
2017-09-08T02:21:38.610Z,15.33
2017-09-08T02:24:05.574Z,15.36
2017-09-08T02:26:31.864Z,15.28
2017-09-08T02:28:58.110Z,15.32
2017-09-08T02:31:24.348Z,15.34
2017-09-08T02:33:51.310Z,15.34
2017-09-08T02:36:17.895Z,15.31
2017-09-08T02:38:44.125Z,15.30
2017-09-08T02:41:10.357Z,15.32
2017-09-08T02:43:36.774Z,15.33
2017-09-08T02:46:03.003Z,15.35
2017-09-08T02:48:29.235Z,15.34
2017-09-08T02:50:55.481Z,15.31
2017-09-08T02:53:21.734Z,15.23
2017-09-08T02:55:47.969Z,15.04
2017-09-08T02:58:14.206Z,14.94
2017-09-08T03:00:40.430Z,14.86
2017-09-08T03:03:06.666Z,14.73
2017-09-08T03:05:32.914Z,14.63
2017-09-08T03:07:59.126Z,14.60
2017-09-08T03:10:25.350Z,14.57
2017-09-08T03:12:51.592Z,14.49
2017-09-08T03:15:17.820Z,14.48
2017-09-08T03:17:44.029Z,14.44
2017-09-08T03:20:10.391Z,14.38
2017-09-08T03:22:36.605Z,14.32
2017-09-08T03:25:02.843Z,14.28
2017-09-08T03:27:29.112Z,14.25
2017-09-08T03:29:56.116Z,14.17
2017-09-08T03:32:22.328Z,14.18
2017-09-08T03:34:48.577Z,14.13
2017-09-08T03:37:14.784Z,14.08
2017-09-08T03:39:41.001Z,14.05
2017-09-08T03:42:07.254Z,14.05
2017-09-08T03:44:33.480Z,14.06
2017-09-08T03:46:59.697Z,14.05
2017-09-08T03:49:25.926Z,14.04
2017-09-08T03:51:52.154Z,14.04
2017-09-08T03:54:18.410Z,14.06
2017-09-08T03:56:44.634Z,14.05
2017-09-08T03:59:10.860Z,14.07
2017-09-08T04:01:37.139Z,14.13
2017-09-08T04:04:04.132Z,14.13
2017-09-08T04:06:30.360Z,14.13
2017-09-08T04:08:56.609Z,14.11
2017-09-08T04:11:22.847Z,14.11
2017-09-08T04:13:49.097Z,14.12
2017-09-08T04:16:16.365Z,14.15
2017-09-08T04:18:42.617Z,14.13
2017-09-08T04:21:08.837Z,14.09
2017-09-08T04:23:35.402Z,14.12
2017-09-08T04:26:01.642Z,14.16
2017-09-08T04:28:27.891Z,14.23
2017-09-08T04:30:54.874Z,14.17
2017-09-08T04:33:21.099Z,14.15
2017-09-08T04:35:47.314Z,14.16
2017-09-08T04:38:13.583Z,14.18
2017-09-08T04:40:39.833Z,14.18
2017-09-08T04:43:06.069Z,14.20
2017-09-08T04:45:32.675Z,14.22
2017-09-08T04:47:59.650Z,14.20
2017-09-08T04:50:25.893Z,14.23
2017-09-08T04:52:52.142Z,14.23
2017-09-08T04:55:18.363Z,14.25
2017-09-08T04:57:44.590Z,14.27
2017-09-08T05:00:10.842Z,14.30
2017-09-08T05:02:37.094Z,14.33
2017-09-08T05:05:03.332Z,14.28
2017-09-08T05:07:29.578Z,14.26
2017-09-08T05:09:55.804Z,14.28
2017-09-08T05:12:22.026Z,14.30
2017-09-08T05:14:48.309Z,14.32
2017-09-08T05:17:14.525Z,14.31
2017-09-08T05:19:40.742Z,14.33
2017-09-08T05:22:07.766Z,14.31
2017-09-08T05:24:34.730Z,14.26
2017-09-08T05:27:01.713Z,14.29
2017-09-08T05:29:27.937Z,14.26
2017-09-08T05:31:54.160Z,14.31
2017-09-08T05:34:20.399Z,14.42
2017-09-08T05:36:46.618Z,14.43
2017-09-08T05:39:12.836Z,14.40
2017-09-08T05:41:39.100Z,14.40
2017-09-08T05:44:05.326Z,14.41
2017-09-08T05:46:31.551Z,14.41
2017-09-08T05:48:57.906Z,14.43
2017-09-08T05:51:24.135Z,14.44
2017-09-08T05:53:50.371Z,14.44
2017-09-08T05:56:16.745Z,14.50
2017-09-08T05:58:43.352Z,14.49
2017-09-08T06:01:09.583Z,14.51
2017-09-08T06:03:36.027Z,14.55
2017-09-08T06:06:02.303Z,14.59
2017-09-08T06:08:28.937Z,14.58
2017-09-08T06:10:55.205Z,14.59
2017-09-08T06:13:22.203Z,14.57
2017-09-08T06:15:48.621Z,14.62
2017-09-08T06:18:14.846Z,14.66
2017-09-08T06:20:41.302Z,14.64
2017-09-08T06:23:07.528Z,14.66
2017-09-08T06:25:33.792Z,14.68
2017-09-08T06:28:01.001Z,14.65
2017-09-08T06:30:27.362Z,14.66
2017-09-08T06:32:53.788Z,14.71
2017-09-08T06:35:20.027Z,14.68
2017-09-08T06:37:46.504Z,14.70
2017-09-08T06:40:12.761Z,14.72
2017-09-08T06:42:39.100Z,14.76
2017-09-08T06:45:05.345Z,14.76
2017-09-08T06:47:31.620Z,14.77
2017-09-08T06:49:57.832Z,14.81
2017-09-08T06:52:24.077Z,14.79
2017-09-08T06:54:50.342Z,14.83
2017-09-08T06:57:16.564Z,14.81
2017-09-08T06:59:42.822Z,14.81
2017-09-08T07:02:11.048Z,14.86
2017-09-08T07:04:38.188Z,14.85
2017-09-08T07:07:04.487Z,14.83
2017-09-08T07:09:30.738Z,15.07
2017-09-08T07:11:56.962Z,15.06
2017-09-08T07:14:23.340Z,15.06
2017-09-08T07:16:49.583Z,15.03
2017-09-08T07:19:16.154Z,15.12
2017-09-08T07:21:42.380Z,15.06
2017-09-08T07:24:09.722Z,15.10
2017-09-08T07:26:36.963Z,15.09
2017-09-08T07:29:03.944Z,15.16
2017-09-08T07:31:32.307Z,15.15
2017-09-08T07:33:59.525Z,15.22
2017-09-08T07:36:28.362Z,15.19
2017-09-08T07:38:55.989Z,15.22
2017-09-08T07:41:23.148Z,15.08
2017-09-08T07:43:51.061Z,15.07
2017-09-08T07:46:17.289Z,15.08
2017-09-08T07:48:43.752Z,15.10
2017-09-08T07:51:10.054Z,15.09
2017-09-08T07:53:36.477Z,15.10
2017-09-08T07:56:02.737Z,15.07
2017-09-08T07:58:28.967Z,15.08
2017-09-08T08:00:55.182Z,15.13
2017-09-08T08:03:21.660Z,15.16
2017-09-08T08:05:48.633Z,15.21
2017-09-08T08:08:14.866Z,15.22
2017-09-08T08:10:41.146Z,15.17
2017-09-08T08:13:07.381Z,15.15
2017-09-08T08:15:34.364Z,15.14
2017-09-08T08:18:00.618Z,15.12
2017-09-08T08:20:26.826Z,15.07
2017-09-08T08:22:53.066Z,15.04
2017-09-08T08:25:19.318Z,14.98
2017-09-08T08:27:45.560Z,14.96
2017-09-08T08:30:11.785Z,14.93
2017-09-08T08:32:38.305Z,14.94
2017-09-08T08:35:04.545Z,14.90
2017-09-08T08:37:30.762Z,14.89
2017-09-08T08:39:57.022Z,14.89
2017-09-08T08:42:24.008Z,14.89
2017-09-08T08:44:50.253Z,14.89
2017-09-08T08:47:16.686Z,14.89
2017-09-08T08:49:42.906Z,14.90
2017-09-08T08:52:09.149Z,14.95
2017-09-08T08:54:35.582Z,14.88
2017-09-08T08:57:01.810Z,14.92
2017-09-08T08:59:28.026Z,14.90
2017-09-08T09:01:54.282Z,14.87
2017-09-08T09:04:20.510Z,14.88
2017-09-08T09:06:46.730Z,14.88
2017-09-08T09:09:12.993Z,14.85
2017-09-08T09:11:39.942Z,14.88
2017-09-08T09:14:06.892Z,14.90
2017-09-08T09:16:33.295Z,14.92
2017-09-08T09:18:59.524Z,14.89
2017-09-08T09:21:25.742Z,14.89
2017-09-08T09:23:52.259Z,14.90
2017-09-08T09:26:18.526Z,14.91
2017-09-08T09:28:45.742Z,14.90
2017-09-08T09:31:12.297Z,14.87
2017-09-08T09:33:38.530Z,14.87
2017-09-08T09:36:05.501Z,14.83
2017-09-08T09:38:32.424Z,14.79
2017-09-08T09:40:59.130Z,14.78
2017-09-08T09:43:25.791Z,14.72
2017-09-08T09:45:52.464Z,14.77
2017-09-08T09:48:19.218Z,14.77
2017-09-08T09:50:45.682Z,14.69
2017-09-08T09:53:11.999Z,14.70
2017-09-08T09:55:38.368Z,14.73
2017-09-08T09:58:04.672Z,14.74
2017-09-08T10:00:30.897Z,14.76
2017-09-08T10:02:57.114Z,14.76
2017-09-08T10:05:23.377Z,14.80
2017-09-08T10:07:49.588Z,14.83
2017-09-08T10:10:15.798Z,14.85
2017-09-08T10:12:42.055Z,14.87
2017-09-08T10:15:08.290Z,14.88
2017-09-08T10:17:34.517Z,14.94
2017-09-08T10:20:00.855Z,14.97
2017-09-08T10:22:27.809Z,14.96
2017-09-08T10:24:54.774Z,15.01
2017-09-08T10:27:21.005Z,15.04
2017-09-08T10:29:47.286Z,15.03
2017-09-08T10:32:13.717Z,15.10
2017-09-08T10:34:40.119Z,15.09
2017-09-08T10:37:06.338Z,15.08
2017-09-08T10:39:32.566Z,15.08
2017-09-08T10:41:58.821Z,15.09
2017-09-08T10:44:25.040Z,15.06
2017-09-08T10:46:58.752Z,15.01
2017-09-08T10:49:24.985Z,14.99
2017-09-08T10:51:51.214Z,14.94
2017-09-08T10:54:17.721Z,14.96
2017-09-08T10:56:43.944Z,14.97
2017-09-08T10:59:10.367Z,14.97
2017-09-08T11:01:36.615Z,14.98
2017-09-08T11:04:02.852Z,14.98
2017-09-08T11:06:29.061Z,14.98
2017-09-08T11:08:55.300Z,14.98
2017-09-08T11:11:21.522Z,14.95
2017-09-08T11:13:47.745Z,14.96
2017-09-08T11:16:14.025Z,14.94
2017-09-08T11:18:40.245Z,14.90
2017-09-08T11:21:06.470Z,14.94
2017-09-08T11:23:32.721Z,14.95
2017-09-08T11:25:59.674Z,14.96
2017-09-08T11:28:26.729Z,14.94
2017-09-08T11:30:53.754Z,14.92
2017-09-08T11:33:26.849Z,14.94
2017-09-08T11:35:59.190Z,14.95
2017-09-08T11:38:25.426Z,14.97
2017-09-08T11:40:51.673Z,15.00
2017-09-08T11:43:18.688Z,15.00
2017-09-08T11:45:44.913Z,15.01
2017-09-08T11:48:11.450Z,15.02
2017-09-08T11:50:37.737Z,15.02
2017-09-08T11:53:04.058Z,15.07
2017-09-08T11:55:30.390Z,15.09
2017-09-08T11:57:57.089Z,15.05
2017-09-08T12:00:23.384Z,15.06
2017-09-08T12:02:49.673Z,15.12
2017-09-08T12:05:15.893Z,15.09
2017-09-08T12:07:42.110Z,15.16
2017-09-08T12:10:08.457Z,15.17
2017-09-08T12:12:35.417Z,15.25
2017-09-08T12:15:02.394Z,15.21
2017-09-08T12:17:28.630Z,15.20
2017-09-08T12:19:54.850Z,15.21
2017-09-08T12:22:21.060Z,15.24
2017-09-08T12:24:47.426Z,15.26
2017-09-08T12:27:13.639Z,15.31
2017-09-08T12:29:39.866Z,15.33
2017-09-08T12:32:06.115Z,15.35
2017-09-08T12:34:32.336Z,15.37
2017-09-08T12:36:58.555Z,15.38
2017-09-08T12:39:24.822Z,15.40
2017-09-08T12:41:51.050Z,15.44
2017-09-08T12:44:17.256Z,15.46
2017-09-08T12:46:43.533Z,15.49
2017-09-08T12:49:09.769Z,15.49
2017-09-08T12:51:35.989Z,15.53
2017-09-08T12:54:02.256Z,15.53
2017-09-08T12:56:28.470Z,15.52
2017-09-08T12:58:54.693Z,15.54
2017-09-08T13:01:21.042Z,15.55
2017-09-08T13:03:47.255Z,15.54
2017-09-08T13:06:13.505Z,15.54
2017-09-08T13:08:39.712Z,15.56
2017-09-08T13:11:05.931Z,15.57
2017-09-08T13:13:32.194Z,15.61
2017-09-08T13:15:58.412Z,15.59
2017-09-08T13:18:24.652Z,15.62
2017-09-08T13:20:50.904Z,15.58
2017-09-08T13:23:17.125Z,15.61
2017-09-08T13:25:43.361Z,15.63
2017-09-08T13:28:09.602Z,15.67
2017-09-08T13:30:36.604Z,15.71
2017-09-08T13:33:02.828Z,15.74
2017-09-08T13:35:29.267Z,15.73
2017-09-08T13:37:55.481Z,15.74
2017-09-08T13:40:21.707Z,15.83
2017-09-08T13:42:48.214Z,15.86
2017-09-08T13:45:14.461Z,15.86
2017-09-08T13:47:40.691Z,15.82
2017-09-08T13:50:06.917Z,15.83
2017-09-08T13:52:33.174Z,15.84
2017-09-08T13:54:59.411Z,15.83
2017-09-08T13:57:25.631Z,15.85
2017-09-08T13:59:51.852Z,15.84
2017-09-08T14:02:18.468Z,15.86
2017-09-08T14:04:44.679Z,15.92
2017-09-08T14:07:10.893Z,15.93
2017-09-08T14:09:37.901Z,15.96
2017-09-08T14:12:04.141Z,15.95
2017-09-08T14:14:30.351Z,15.98
2017-09-08T14:16:56.606Z,15.99
2017-09-08T14:19:22.830Z,16.02
2017-09-08T14:21:49.045Z,16.07
2017-09-08T14:24:15.306Z,16.06
2017-09-08T14:26:42.278Z,16.03
2017-09-08T14:29:08.488Z,16.05
2017-09-08T14:31:35.514Z,16.08
2017-09-08T14:34:02.481Z,16.09
2017-09-08T14:36:29.448Z,16.01
2017-09-08T14:38:55.699Z,16.02
2017-09-08T14:41:21.943Z,15.94
2017-09-08T14:43:48.151Z,15.86
2017-09-08T14:46:14.375Z,15.86
2017-09-08T14:48:40.661Z,15.81
2017-09-08T14:51:06.890Z,15.76
2017-09-08T14:53:33.130Z,15.77
2017-09-08T14:55:59.375Z,15.74
2017-09-08T14:58:25.613Z,15.70
2017-09-08T15:00:51.836Z,15.70
2017-09-08T15:03:18.087Z,15.70
2017-09-08T15:05:44.317Z,15.71
2017-09-08T15:08:10.535Z,15.66
2017-09-08T15:10:36.750Z,15.67
2017-09-08T15:13:03.012Z,15.63
2017-09-08T15:15:29.248Z,15.65
2017-09-08T15:17:55.456Z,15.63
2017-09-08T15:20:21.983Z,15.63
2017-09-08T15:22:48.190Z,15.62
2017-09-08T15:25:14.413Z,15.58
2017-09-08T15:27:40.653Z,15.60
2017-09-08T15:30:06.873Z,15.60
2017-09-08T15:32:33.093Z,15.58
2017-09-08T15:34:59.672Z,15.60
2017-09-08T15:37:25.894Z,15.61
2017-09-08T15:39:52.123Z,15.58
2017-09-08T15:42:18.392Z,15.59
2017-09-08T15:44:45.372Z,15.56
2017-09-08T15:47:11.601Z,15.60
2017-09-08T15:49:37.850Z,15.59
2017-09-08T15:52:04.079Z,15.52
2017-09-08T15:54:30.306Z,15.58
2017-09-08T15:56:56.585Z,15.58
2017-09-08T15:59:23.548Z,15.59
2017-09-08T16:01:49.767Z,15.61
2017-09-08T16:04:16.164Z,15.60
2017-09-08T16:06:42.389Z,15.64
2017-09-08T16:09:08.603Z,15.63
2017-09-08T16:11:34.848Z,15.64
2017-09-08T16:14:01.078Z,15.62
2017-09-08T16:16:28.043Z,15.64
2017-09-08T16:18:55.274Z,15.65
2017-09-08T16:21:22.262Z,15.65
2017-09-08T16:23:48.492Z,15.60
2017-09-08T16:26:14.757Z,15.60
2017-09-08T16:28:40.976Z,15.60
2017-09-08T16:31:07.199Z,15.63
2017-09-08T16:33:33.649Z,15.63
2017-09-08T16:35:59.891Z,15.65
2017-09-08T16:38:26.109Z,15.70
2017-09-08T16:40:52.627Z,15.71
2017-09-08T16:43:18.833Z,15.66
2017-09-08T16:45:45.054Z,15.64
2017-09-08T16:48:11.291Z,15.63
2017-09-08T16:50:37.515Z,15.61
2017-09-08T16:53:03.751Z,15.60
2017-09-08T16:55:29.996Z,15.57
2017-09-08T16:57:56.529Z,15.55
2017-09-08T17:00:22.749Z,15.52
2017-09-08T17:02:48.966Z,15.50
2017-09-08T17:05:15.226Z,15.50
2017-09-08T17:07:41.445Z,15.49
2017-09-08T17:10:07.669Z,15.47
2017-09-08T17:12:33.899Z,15.48
2017-09-08T17:15:00.333Z,15.47
2017-09-08T17:17:26.561Z,15.46
2017-09-08T17:19:52.773Z,15.46
2017-09-08T17:22:19.037Z,15.48
2017-09-08T17:24:45.270Z,15.49
2017-09-08T17:27:11.530Z,15.47
2017-09-08T17:29:38.005Z,15.45
2017-09-08T17:32:04.232Z,15.47
2017-09-08T17:34:30.463Z,15.49
2017-09-08T17:36:56.691Z,15.54
2017-09-08T17:39:22.926Z,15.53
2017-09-08T17:41:49.453Z,15.53
2017-09-08T17:44:15.681Z,15.51
2017-09-08T17:46:41.905Z,15.52
2017-09-08T17:49:08.145Z,15.54
2017-09-08T17:51:34.369Z,15.52
2017-09-08T17:54:00.634Z,15.54
2017-09-08T17:56:27.634Z,15.53
2017-09-08T17:58:53.854Z,15.54
2017-09-08T18:01:20.087Z,15.50
2017-09-08T18:03:46.303Z,15.53
2017-09-08T18:06:12.530Z,15.51
2017-09-08T18:08:38.992Z,15.51
2017-09-08T18:11:05.236Z,15.48
2017-09-08T18:13:31.461Z,15.50
2017-09-08T18:15:57.702Z,15.51
2017-09-08T18:18:24.678Z,15.51
2017-09-08T18:20:50.916Z,15.51
2017-09-08T18:23:17.145Z,15.51
2017-09-08T18:25:43.390Z,15.53
2017-09-08T18:28:09.644Z,15.54
2017-09-08T18:30:35.872Z,15.56
2017-09-08T18:33:02.125Z,15.56
2017-09-08T18:35:29.402Z,15.57
2017-09-08T18:37:55.637Z,15.56
2017-09-08T18:40:21.882Z,15.56
2017-09-08T18:42:48.107Z,15.57
2017-09-08T18:45:14.340Z,15.60
2017-09-08T18:47:40.578Z,15.61
2017-09-08T18:50:07.572Z,15.59
2017-09-08T18:52:33.824Z,15.62
2017-09-08T18:55:00.098Z,15.60
2017-09-08T18:57:26.357Z,15.58
2017-09-08T18:59:53.327Z,15.59
2017-09-08T19:02:19.582Z,15.59
2017-09-08T19:04:45.810Z,15.58
2017-09-08T19:07:12.204Z,15.59
2017-09-08T19:09:38.602Z,15.60
2017-09-08T19:12:05.578Z,15.60
2017-09-08T19:14:31.815Z,15.62
2017-09-08T19:16:58.051Z,15.62
2017-09-08T19:19:24.291Z,15.62
2017-09-08T19:21:50.509Z,15.63
2017-09-08T19:24:16.972Z,15.59
2017-09-08T19:26:43.226Z,15.59
2017-09-08T19:29:10.198Z,15.61
2017-09-08T19:31:36.680Z,15.60
2017-09-08T19:34:03.665Z,15.61
2017-09-08T19:36:30.641Z,15.61
2017-09-08T19:38:56.963Z,15.58
2017-09-08T19:41:23.206Z,15.57
2017-09-08T19:43:49.458Z,15.57
2017-09-08T19:46:15.713Z,15.58
2017-09-08T19:48:42.712Z,15.57
2017-09-08T19:51:08.939Z,15.58
2017-09-08T19:53:35.310Z,15.60
2017-09-08T19:56:01.556Z,15.58
2017-09-08T19:58:28.536Z,15.57
2017-09-08T20:00:54.993Z,15.59
2017-09-08T20:03:21.210Z,15.64
2017-09-08T20:05:47.435Z,15.76
2017-09-08T20:08:14.018Z,15.63
2017-09-08T20:10:40.989Z,15.74
2017-09-08T20:13:07.202Z,15.63
2017-09-08T20:15:34.162Z,15.76
2017-09-08T20:18:00.409Z,15.67
2017-09-08T20:20:26.646Z,15.68
2017-09-08T20:22:52.875Z,15.82
2017-09-08T20:25:19.147Z,15.62
2017-09-08T20:27:46.122Z,15.74
2017-09-08T20:30:12.350Z,15.61
2017-09-08T20:32:38.933Z,15.61
2017-09-08T20:35:05.158Z,15.69
2017-09-08T20:37:31.381Z,15.72
2017-09-08T20:39:57.621Z,15.71
2017-09-08T20:42:23.845Z,15.61
2017-09-08T20:44:50.069Z,15.68
2017-09-08T20:47:16.334Z,15.69
2017-09-08T20:49:43.298Z,15.63
2017-09-08T20:52:09.519Z,15.65
2017-09-08T20:54:35.767Z,15.77
2017-09-08T20:57:02.022Z,15.72
2017-09-08T20:59:28.283Z,15.69
2017-09-08T21:01:54.509Z,15.63
2017-09-08T21:04:20.736Z,15.68
2017-09-08T21:06:47.245Z,15.71
2017-09-08T21:09:13.617Z,15.69
2017-09-08T21:11:40.610Z,15.64
2017-09-08T21:14:06.851Z,15.68
2017-09-08T21:16:33.118Z,15.71
2017-09-08T21:19:00.080Z,15.63
2017-09-08T21:21:26.297Z,15.60
2017-09-08T21:23:53.276Z,15.65
2017-09-08T21:26:19.516Z,15.63
2017-09-08T21:28:45.727Z,15.76
2017-09-08T21:31:11.977Z,15.61
2017-09-08T21:33:38.194Z,15.65
2017-09-08T21:36:04.420Z,15.74
2017-09-08T21:38:30.877Z,15.67
2017-09-08T21:40:57.103Z,15.70
2017-09-08T21:43:23.329Z,15.74
2017-09-08T21:45:49.588Z,15.83
2017-09-08T21:48:16.555Z,15.60
2017-09-08T21:50:42.786Z,15.64
2017-09-08T21:53:09.023Z,15.62
2017-09-08T21:55:35.239Z,15.61
2017-09-08T21:58:01.457Z,15.76
2017-09-08T22:00:28.766Z,15.63
2017-09-08T22:02:55.013Z,15.62
2017-09-08T22:05:21.241Z,15.62
2017-09-08T22:07:47.578Z,15.55
2017-09-08T22:10:13.802Z,15.49
2017-09-08T22:12:40.063Z,15.45
2017-09-08T22:15:07.057Z,15.45
2017-09-08T22:17:33.269Z,15.42
2017-09-08T22:19:59.494Z,15.41
2017-09-08T22:22:25.739Z,15.37
2017-09-08T22:24:51.973Z,15.34
2017-09-08T22:27:18.205Z,15.40
2017-09-08T22:29:44.459Z,15.39
2017-09-08T22:32:11.446Z,15.39
2017-09-08T22:34:37.783Z,15.40
2017-09-08T22:37:04.006Z,15.39
2017-09-08T22:39:30.218Z,15.38
2017-09-08T22:41:56.694Z,15.42
2017-09-08T22:44:22.949Z,15.42
2017-09-08T22:46:49.166Z,15.42
2017-09-08T22:49:15.683Z,15.38
2017-09-08T22:51:41.916Z,15.37
2017-09-08T22:54:08.159Z,15.36
2017-09-08T22:56:34.441Z,15.36
2017-09-08T22:59:00.658Z,15.42
2017-09-08T23:01:26.886Z,15.41
2017-09-08T23:03:53.106Z,15.45
2017-09-08T23:06:19.335Z,15.41
2017-09-08T23:08:45.808Z,15.37
2017-09-08T23:11:12.041Z,15.34
2017-09-08T23:13:38.322Z,15.30
2017-09-08T23:16:04.585Z,15.25
2017-09-08T23:18:30.814Z,15.26
2017-09-08T23:20:57.070Z,15.28
2017-09-08T23:23:23.320Z,15.27
2017-09-08T23:25:49.575Z,15.26
2017-09-08T23:28:15.786Z,15.28
2017-09-08T23:30:42.078Z,15.30
2017-09-08T23:33:08.316Z,15.32
2017-09-08T23:35:34.549Z,15.33
2017-09-08T23:38:01.692Z,15.33
2017-09-08T23:40:27.918Z,15.33
2017-09-08T23:42:54.141Z,15.35
2017-09-08T23:45:20.385Z,15.35
2017-09-08T23:47:46.636Z,15.34
2017-09-08T23:50:12.997Z,15.36
2017-09-08T23:52:39.220Z,15.37
2017-09-08T23:55:05.457Z,15.38
2017-09-08T23:57:31.798Z,15.34
2017-09-08T23:59:58.007Z,15.34
